createdAt,value
2019-03-11T00:01:23.807Z,2.50
2019-03-11T00:03:51.555Z,2.50
2019-03-11T00:06:18.885Z,2.50
2019-03-11T00:08:46.549Z,2.60
2019-03-11T00:11:14.210Z,2.60
2019-03-11T00:13:42.140Z,2.60
2019-03-11T00:16:09.694Z,2.60
2019-03-11T00:18:37.183Z,2.50
2019-03-11T00:21:04.825Z,2.60
2019-03-11T00:23:32.646Z,2.60
2019-03-11T00:26:00.397Z,2.50
2019-03-11T00:28:28.340Z,2.80
2019-03-11T00:30:55.918Z,3.00
2019-03-11T00:33:24.511Z,3.10
2019-03-11T00:35:51.984Z,2.90
2019-03-11T00:38:20.249Z,3.00
2019-03-11T00:40:47.921Z,2.90
2019-03-11T00:43:15.625Z,3.00
2019-03-11T00:45:43.353Z,3.00
2019-03-11T00:48:11.063Z,2.90
2019-03-11T00:50:38.807Z,2.90
2019-03-11T00:53:06.359Z,2.80
2019-03-11T00:55:34.091Z,3.00
2019-03-11T00:58:02.101Z,2.90
2019-03-11T01:00:32.919Z,2.80
2019-03-11T01:03:00.670Z,3.00
2019-03-11T01:05:28.549Z,2.90
2019-03-11T01:07:56.399Z,2.90
2019-03-11T01:10:24.227Z,2.90
2019-03-11T01:12:51.481Z,2.80
2019-03-11T01:15:19.166Z,2.70
2019-03-11T01:17:47.340Z,2.70
2019-03-11T01:20:14.886Z,2.80
2019-03-11T01:22:42.324Z,2.80
2019-03-11T01:25:10.278Z,2.90
2019-03-11T01:27:38.112Z,2.90
2019-03-11T01:30:06.086Z,2.90
2019-03-11T01:32:34.367Z,3.00
2019-03-11T01:35:02.228Z,2.90
2019-03-11T01:37:29.577Z,2.90
2019-03-11T01:39:57.056Z,3.00
2019-03-11T01:42:24.496Z,3.10
2019-03-11T01:44:52.129Z,3.10
2019-03-11T01:47:19.951Z,3.20
2019-03-11T01:49:47.580Z,3.20
2019-03-11T01:52:15.167Z,3.20
2019-03-11T01:54:43.427Z,3.30
2019-03-11T01:57:10.967Z,3.40
2019-03-11T01:59:38.374Z,3.40
2019-03-11T02:02:06.701Z,3.40
2019-03-11T02:04:34.257Z,3.50
2019-03-11T02:07:02.075Z,3.50
2019-03-11T02:09:29.776Z,3.50
2019-03-11T02:11:57.566Z,3.60
2019-03-11T02:14:25.454Z,3.70
2019-03-11T02:16:53.106Z,3.70
2019-03-11T02:19:20.369Z,3.60
2019-03-11T02:21:48.348Z,3.50
2019-03-11T02:24:16.332Z,3.50
2019-03-11T02:26:44.135Z,3.40
2019-03-11T02:29:11.998Z,3.50
2019-03-11T02:31:39.781Z,3.60
2019-03-11T02:34:06.930Z,3.50
2019-03-11T02:36:34.762Z,3.60
2019-03-11T02:39:02.880Z,3.60
2019-03-11T02:41:30.604Z,3.60
2019-03-11T02:43:58.431Z,3.60
2019-03-11T02:46:26.442Z,3.60
2019-03-11T02:48:53.854Z,3.60
2019-03-11T02:51:21.292Z,3.60
2019-03-11T02:53:49.159Z,3.60
2019-03-11T02:56:17.167Z,3.70
2019-03-11T02:58:44.901Z,3.60
2019-03-11T03:01:30.346Z,3.60
2019-03-11T03:04:02.083Z,3.70
2019-03-11T03:06:29.650Z,3.70
2019-03-11T03:08:57.265Z,3.80
2019-03-11T03:11:25.443Z,3.80
2019-03-11T03:13:52.765Z,4.10
2019-03-11T03:16:20.615Z,4.10
2019-03-11T03:18:47.801Z,4.00
2019-03-11T03:21:15.401Z,4.00
2019-03-11T03:23:43.373Z,4.00
2019-03-11T03:26:11.234Z,4.00
2019-03-11T03:28:38.771Z,4.20
2019-03-11T03:31:06.362Z,4.10
2019-03-11T03:33:34.602Z,4.30
2019-03-11T03:36:02.552Z,4.20
2019-03-11T03:38:31.385Z,4.20
2019-03-11T03:40:59.191Z,4.30
2019-03-11T03:43:27.048Z,4.20
2019-03-11T03:45:54.439Z,4.00
2019-03-11T03:48:22.327Z,3.40
2019-03-11T03:50:49.700Z,3.20
2019-03-11T03:53:17.822Z,3.00
2019-03-11T03:55:45.693Z,2.90
2019-03-11T03:58:13.405Z,2.80
2019-03-11T04:00:40.935Z,2.80
2019-03-11T04:03:08.816Z,2.90
2019-03-11T04:05:36.091Z,2.80
2019-03-11T04:08:03.845Z,2.80
2019-03-11T04:10:33.164Z,2.80
2019-03-11T04:13:01.106Z,2.70
2019-03-11T04:15:28.525Z,2.60
2019-03-11T04:17:56.048Z,2.60
2019-03-11T04:20:24.747Z,2.60
2019-03-11T04:22:52.255Z,2.60
2019-03-11T04:25:20.023Z,2.50
2019-03-11T04:27:47.677Z,2.60
2019-03-11T04:30:18.255Z,2.60
2019-03-11T04:32:46.129Z,2.50
2019-03-11T04:35:14.022Z,2.50
2019-03-11T04:37:41.713Z,2.40
2019-03-11T04:40:10.902Z,2.50
2019-03-11T04:42:38.464Z,2.50
2019-03-11T04:45:07.549Z,2.60
2019-03-11T04:47:35.332Z,2.60
2019-03-11T04:50:03.556Z,2.60
2019-03-11T04:52:31.176Z,2.50
2019-03-11T04:54:59.014Z,2.60
2019-03-11T04:57:27.216Z,2.60
2019-03-11T04:59:54.804Z,2.60
2019-03-11T05:02:22.578Z,2.70
2019-03-11T05:04:50.763Z,2.60
2019-03-11T05:07:18.239Z,2.70
2019-03-11T05:09:46.226Z,2.70
2019-03-11T05:12:13.903Z,2.70
2019-03-11T05:14:41.618Z,2.60
2019-03-11T05:17:09.459Z,2.60
2019-03-11T05:19:37.259Z,2.30
2019-03-11T05:22:05.284Z,2.00
2019-03-11T05:24:32.878Z,1.80
2019-03-11T05:27:00.570Z,1.70
2019-03-11T05:29:27.915Z,1.50
2019-03-11T05:31:55.293Z,1.50
2019-03-11T05:34:22.899Z,1.50
2019-03-11T05:36:50.225Z,1.50
2019-03-11T05:39:18.069Z,1.50
2019-03-11T05:41:46.373Z,1.60
2019-03-11T05:44:14.040Z,1.40
2019-03-11T05:46:41.457Z,1.40
2019-03-11T05:49:08.795Z,1.60
2019-03-11T05:51:36.664Z,1.60
2019-03-11T05:54:04.024Z,1.50
2019-03-11T05:56:31.865Z,1.50
2019-03-11T05:58:59.921Z,1.50
2019-03-11T06:01:27.163Z,1.60
2019-03-11T06:03:55.290Z,1.70
2019-03-11T06:06:23.711Z,1.70
2019-03-11T06:08:51.841Z,1.80
2019-03-11T06:11:19.466Z,1.90
2019-03-11T06:13:47.570Z,1.90
2019-03-11T06:16:16.179Z,2.00
2019-03-11T06:18:47.734Z,2.00
2019-03-11T06:21:35.233Z,2.00
2019-03-11T06:24:03.162Z,2.00
2019-03-11T06:26:30.795Z,2.00
2019-03-11T06:28:58.437Z,2.10
2019-03-11T06:31:26.713Z,1.90
2019-03-11T06:33:55.027Z,2.00
2019-03-11T06:36:22.749Z,2.20
2019-03-11T06:38:50.445Z,2.10
2019-03-11T06:41:17.967Z,2.30
2019-03-11T06:43:45.541Z,2.30
2019-03-11T06:46:12.739Z,2.30
2019-03-11T06:48:41.184Z,2.20
2019-03-11T06:51:08.725Z,2.30
2019-03-11T06:53:35.965Z,2.20
2019-03-11T06:56:03.779Z,2.20
2019-03-11T06:58:31.196Z,2.20
2019-03-11T07:00:59.164Z,2.20
2019-03-11T07:03:26.943Z,2.20
2019-03-11T07:05:54.588Z,2.20
2019-03-11T07:08:22.114Z,2.20
2019-03-11T07:10:49.793Z,2.50
2019-03-11T07:13:17.505Z,3.00
2019-03-11T07:15:45.477Z,3.30
2019-03-11T07:18:13.048Z,3.40
2019-03-11T07:20:40.325Z,3.40
2019-03-11T07:23:07.819Z,3.50
2019-03-11T07:25:35.500Z,3.70
2019-03-11T07:28:03.075Z,4.10
2019-03-11T07:30:33.774Z,4.50
2019-03-11T07:33:02.128Z,4.60
2019-03-11T07:35:29.814Z,4.50
2019-03-11T07:37:57.460Z,4.40
2019-03-11T07:40:30.140Z,4.60
2019-03-11T07:42:55.451Z,4.90
2019-03-11T07:45:23.122Z,5.20
2019-03-11T07:47:50.432Z,5.20
2019-03-11T07:50:18.064Z,5.20
2019-03-11T07:52:46.203Z,5.40
2019-03-11T07:55:13.863Z,5.50
2019-03-11T07:57:41.457Z,5.50
2019-03-11T08:00:09.798Z,5.90
2019-03-11T08:02:37.928Z,6.10
2019-03-11T08:05:06.946Z,6.60
2019-03-11T08:07:34.690Z,7.10
2019-03-11T08:10:02.212Z,7.20
2019-03-11T08:12:29.616Z,7.10
2019-03-11T08:14:57.155Z,7.10
2019-03-11T08:17:24.547Z,7.20
2019-03-11T08:19:52.719Z,6.90
2019-03-11T08:22:20.118Z,6.70
2019-03-11T08:24:47.545Z,6.70
2019-03-11T08:27:15.086Z,6.80
2019-03-11T08:29:42.605Z,7.00
2019-03-11T08:32:09.861Z,7.40
2019-03-11T08:34:38.352Z,6.30
2019-03-11T08:37:06.939Z,6.60
2019-03-11T08:39:35.001Z,6.90
2019-03-11T08:42:02.729Z,7.10
2019-03-11T08:44:30.104Z,7.60
2019-03-11T08:46:57.526Z,8.00
2019-03-11T08:49:25.151Z,8.00
2019-03-11T08:51:52.648Z,7.60
2019-03-11T08:54:20.234Z,8.10
2019-03-11T08:56:47.574Z,8.80
2019-03-11T08:59:16.692Z,9.20
2019-03-11T09:01:44.537Z,9.60
2019-03-11T09:04:12.214Z,10.20
2019-03-11T09:06:39.913Z,10.30
2019-03-11T09:09:11.330Z,9.80
2019-03-11T09:11:39.677Z,9.70
2019-03-11T09:14:07.403Z,9.20
2019-03-11T09:16:35.526Z,8.60
2019-03-11T09:19:03.200Z,8.50
2019-03-11T09:21:30.863Z,8.10
2019-03-11T09:23:58.896Z,7.80
2019-03-11T09:26:26.485Z,8.10
2019-03-11T09:28:54.403Z,7.90
2019-03-11T09:31:22.121Z,7.90
2019-03-11T09:33:50.022Z,7.40
2019-03-11T09:36:17.674Z,8.00
2019-03-11T09:38:45.361Z,8.20
2019-03-11T09:41:12.961Z,8.20
2019-03-11T09:43:40.497Z,7.50
2019-03-11T09:46:07.936Z,7.40
2019-03-11T09:48:35.205Z,7.30
2019-03-11T09:51:02.968Z,8.20
2019-03-11T09:53:31.137Z,7.30
2019-03-11T09:55:58.719Z,7.10
2019-03-11T09:58:26.687Z,7.40
2019-03-11T10:00:54.651Z,8.00
2019-03-11T10:03:21.852Z,7.80
2019-03-11T10:05:49.286Z,7.70
2019-03-11T10:08:16.919Z,8.50
2019-03-11T10:10:44.707Z,8.70
2019-03-11T10:13:12.113Z,9.20
2019-03-11T10:15:39.768Z,9.30
2019-03-11T10:18:07.150Z,9.10
2019-03-11T10:20:34.784Z,8.70
2019-03-11T10:23:02.066Z,9.20
2019-03-11T10:25:30.231Z,9.30
2019-03-11T10:27:58.148Z,9.40
2019-03-11T10:30:28.564Z,10.30
2019-03-11T10:32:57.156Z,10.60
2019-03-11T10:35:31.894Z,10.70
2019-03-11T10:37:54.315Z,10.60
2019-03-11T10:40:21.723Z,11.00
2019-03-11T10:42:49.116Z,11.10
2019-03-11T10:45:16.951Z,11.10
2019-03-11T10:47:44.759Z,11.20
2019-03-11T10:50:12.475Z,10.70
2019-03-11T10:52:40.017Z,10.50
2019-03-11T10:55:10.059Z,11.10
2019-03-11T10:57:38.047Z,10.90
2019-03-11T11:00:10.679Z,11.10
2019-03-11T11:02:38.590Z,11.30
2019-03-11T11:05:06.786Z,10.40
2019-03-11T11:07:34.390Z,10.60
2019-03-11T11:10:02.155Z,10.30
2019-03-11T11:12:30.032Z,10.50
2019-03-11T11:14:57.217Z,11.90
2019-03-11T11:17:24.705Z,11.30
2019-03-11T11:20:02.878Z,11.40
2019-03-11T11:22:22.339Z,11.40
2019-03-11T11:24:49.609Z,11.60
2019-03-11T11:27:17.303Z,12.10
2019-03-11T11:29:45.398Z,12.50
2019-03-11T11:32:13.478Z,12.10
2019-03-11T11:34:41.330Z,12.50
2019-03-11T11:37:09.062Z,12.20
2019-03-11T11:39:36.431Z,12.60
2019-03-11T11:42:04.642Z,12.30
2019-03-11T11:44:31.937Z,11.70
2019-03-11T11:46:59.696Z,12.80
2019-03-11T11:49:27.418Z,12.50
2019-03-11T11:51:55.497Z,11.50
2019-03-11T11:54:23.208Z,11.20
2019-03-11T11:56:51.427Z,11.70
2019-03-11T11:59:19.349Z,11.80
2019-03-11T12:02:03.287Z,11.20
2019-03-11T12:04:24.452Z,11.30
2019-03-11T12:06:51.874Z,10.50
2019-03-11T12:09:19.649Z,10.10
2019-03-11T12:11:47.871Z,10.20
2019-03-11T12:14:15.710Z,9.80
2019-03-11T12:16:43.268Z,9.90
2019-03-11T12:19:11.117Z,9.60
2019-03-11T12:21:38.961Z,9.30
2019-03-11T12:24:07.679Z,9.80
2019-03-11T12:26:35.757Z,10.20
2019-03-11T12:29:03.972Z,9.90
2019-03-11T12:31:31.771Z,10.10
2019-03-11T12:33:59.681Z,9.60
2019-03-11T12:36:27.416Z,9.80
2019-03-11T12:38:54.710Z,9.30
2019-03-11T12:41:22.104Z,10.10
2019-03-11T12:43:50.189Z,9.40
2019-03-11T12:46:20.562Z,9.00
2019-03-11T12:48:49.049Z,8.90
2019-03-11T12:51:17.235Z,9.00
2019-03-11T12:53:44.439Z,9.10
2019-03-11T12:56:12.626Z,9.40
2019-03-11T12:58:41.818Z,9.00
2019-03-11T13:01:09.658Z,9.00
2019-03-11T13:03:37.526Z,8.70
2019-03-11T13:06:05.054Z,8.70
2019-03-11T13:08:32.460Z,8.70
2019-03-11T13:11:00.291Z,8.40
2019-03-11T13:13:28.137Z,8.50
2019-03-11T13:15:55.612Z,8.20
2019-03-11T13:18:35.303Z,8.30
2019-03-11T13:21:20.365Z,8.20
2019-03-11T13:23:47.914Z,8.40
2019-03-11T13:26:15.249Z,8.40
2019-03-11T13:28:43.173Z,8.40
2019-03-11T13:31:10.747Z,8.30
2019-03-11T13:33:38.744Z,8.30
2019-03-11T13:36:07.604Z,8.60
2019-03-11T13:38:36.626Z,8.40
2019-03-11T13:41:04.665Z,8.30
2019-03-11T13:43:32.142Z,8.20
2019-03-11T13:45:59.975Z,8.20
2019-03-11T13:48:27.676Z,8.10
2019-03-11T13:50:55.440Z,8.00
2019-03-11T13:53:23.186Z,8.00
2019-03-11T13:55:50.747Z,8.00
2019-03-11T13:58:18.050Z,7.80
2019-03-11T14:00:56.065Z,7.90
2019-03-11T14:03:14.757Z,8.00
2019-03-11T14:05:42.191Z,7.90
2019-03-11T14:08:10.322Z,7.90
2019-03-11T14:10:37.944Z,7.90
2019-03-11T14:13:05.798Z,8.30
2019-03-11T14:15:33.466Z,8.20
2019-03-11T14:18:01.459Z,8.20
2019-03-11T14:20:31.663Z,8.00
2019-03-11T14:22:59.558Z,8.00
2019-03-11T14:25:26.847Z,8.00
2019-03-11T14:27:54.668Z,8.20
2019-03-11T14:30:22.261Z,8.00
2019-03-11T14:32:50.270Z,8.00
2019-03-11T14:35:18.139Z,8.10
2019-03-11T14:37:45.909Z,8.20
2019-03-11T14:40:13.434Z,8.10
2019-03-11T14:42:41.562Z,8.10
2019-03-11T14:45:12.038Z,8.20
2019-03-11T14:47:39.436Z,8.20
2019-03-11T14:50:07.966Z,8.00
2019-03-11T14:52:35.750Z,7.90
2019-03-11T14:55:03.725Z,8.00
2019-03-11T14:57:31.371Z,8.00
2019-03-11T14:59:59.706Z,8.00
2019-03-11T15:02:27.468Z,7.70
2019-03-11T15:04:54.884Z,7.60
2019-03-11T15:07:22.303Z,7.50
2019-03-11T15:09:51.629Z,7.50
2019-03-11T15:12:19.687Z,7.50
2019-03-11T15:14:47.516Z,7.60
2019-03-11T15:17:15.238Z,7.40
2019-03-11T15:19:43.229Z,7.40
2019-03-11T15:22:10.481Z,7.40
2019-03-11T15:24:38.431Z,7.30
2019-03-11T15:27:06.434Z,7.10
2019-03-11T15:29:33.867Z,6.90
2019-03-11T15:32:02.363Z,6.90
2019-03-11T15:34:30.161Z,7.40
2019-03-11T15:36:57.891Z,7.10
2019-03-11T15:39:25.688Z,7.20
2019-03-11T15:41:53.367Z,6.70
2019-03-11T15:44:20.932Z,7.10
2019-03-11T15:46:48.653Z,6.80
2019-03-11T15:49:16.362Z,6.90
2019-03-11T15:51:43.995Z,6.80
2019-03-11T15:54:11.693Z,6.80
2019-03-11T15:56:39.464Z,6.80
2019-03-11T15:59:07.294Z,6.60
2019-03-11T16:01:35.401Z,6.50
2019-03-11T16:04:02.975Z,6.70
2019-03-11T16:06:31.377Z,6.80
2019-03-11T16:08:59.338Z,6.70
2019-03-11T16:11:27.416Z,6.30
2019-03-11T16:13:55.151Z,6.20
2019-03-11T16:16:23.060Z,6.30
2019-03-11T16:18:50.844Z,6.40
2019-03-11T16:21:18.598Z,5.80
2019-03-11T16:23:46.300Z,5.90
2019-03-11T16:26:14.406Z,5.80
2019-03-11T16:28:48.108Z,5.70
2019-03-11T16:31:11.586Z,5.50
2019-03-11T16:33:39.315Z,5.60
2019-03-11T16:36:06.742Z,5.70
2019-03-11T16:38:34.434Z,5.60
2019-03-11T16:41:02.215Z,5.60
2019-03-11T16:43:30.073Z,5.40
2019-03-11T16:45:58.077Z,5.30
2019-03-11T16:48:26.013Z,5.30
2019-03-11T16:50:53.254Z,5.10
2019-03-11T16:53:21.109Z,5.20
2019-03-11T16:55:49.942Z,5.10
2019-03-11T16:58:17.811Z,5.10
2019-03-11T17:00:45.638Z,5.30
2019-03-11T17:03:13.659Z,5.20
2019-03-11T17:05:41.383Z,5.40
2019-03-11T17:08:09.202Z,5.30
2019-03-11T17:10:36.704Z,5.30
2019-03-11T17:13:04.280Z,5.30
2019-03-11T17:15:32.509Z,5.20
2019-03-11T17:18:00.588Z,5.30
2019-03-11T17:20:29.078Z,5.40
2019-03-11T17:22:56.845Z,5.40
2019-03-11T17:25:24.864Z,5.30
2019-03-11T17:27:52.702Z,5.30
2019-03-11T17:30:20.262Z,5.30
2019-03-11T17:32:47.757Z,5.30
2019-03-11T17:35:15.639Z,5.30
2019-03-11T17:37:43.461Z,5.40
2019-03-11T17:40:13.987Z,5.40
2019-03-11T17:42:41.494Z,5.50
2019-03-11T17:45:09.657Z,5.50
2019-03-11T17:47:37.724Z,5.50
2019-03-11T17:50:07.363Z,5.40
2019-03-11T17:52:34.991Z,5.50
2019-03-11T17:55:03.457Z,5.60
2019-03-11T17:57:31.157Z,5.60
2019-03-11T17:59:59.066Z,5.60
2019-03-11T18:02:26.894Z,5.60
2019-03-11T18:04:54.943Z,5.70
2019-03-11T18:07:22.182Z,5.60
2019-03-11T18:09:49.618Z,5.60
2019-03-11T18:12:17.496Z,5.70
2019-03-11T18:14:45.286Z,5.60
2019-03-11T18:17:12.709Z,5.70
2019-03-11T18:19:40.267Z,5.60
2019-03-11T18:22:07.661Z,5.70
2019-03-11T18:24:35.704Z,5.70
2019-03-11T18:27:03.480Z,5.70
2019-03-11T18:29:31.919Z,5.70
2019-03-11T18:32:02.231Z,5.70
2019-03-11T18:34:29.321Z,5.80
2019-03-11T18:36:57.619Z,5.70
2019-03-11T18:39:25.276Z,5.70
2019-03-11T18:41:53.896Z,5.70
2019-03-11T18:44:21.452Z,5.70
2019-03-11T18:46:49.085Z,5.70
2019-03-11T18:49:17.109Z,5.70
2019-03-11T18:51:44.614Z,5.70
2019-03-11T18:54:12.699Z,5.80
2019-03-11T18:56:40.944Z,5.80
2019-03-11T18:59:08.382Z,5.90
2019-03-11T19:01:36.121Z,5.80
2019-03-11T19:04:04.395Z,5.70
2019-03-11T19:06:32.230Z,5.80
2019-03-11T19:08:59.739Z,5.80
2019-03-11T19:11:27.559Z,5.80
2019-03-11T19:13:55.416Z,5.80
2019-03-11T19:16:23.505Z,5.80
2019-03-11T19:18:50.746Z,5.80
2019-03-11T19:21:18.673Z,5.90
2019-03-11T19:23:46.502Z,5.90
2019-03-11T19:26:14.285Z,5.90
2019-03-11T19:28:42.398Z,5.90
2019-03-11T19:31:10.068Z,6.00
2019-03-11T19:33:38.270Z,5.90
2019-03-11T19:36:05.854Z,5.90
2019-03-11T19:38:34.025Z,5.90
2019-03-11T19:41:01.719Z,6.00
2019-03-11T19:43:29.574Z,6.10
2019-03-11T19:45:57.609Z,6.00
2019-03-11T19:48:25.002Z,5.90
2019-03-11T19:52:00.133Z,5.80
2019-03-11T19:54:27.485Z,5.90
2019-03-11T19:56:55.267Z,6.00
2019-03-11T19:59:23.797Z,6.00
2019-03-11T20:01:52.069Z,6.00
2019-03-11T20:04:19.458Z,6.10
2019-03-11T20:06:47.287Z,6.00
2019-03-11T20:09:45.504Z,5.80
2019-03-11T20:12:13.331Z,5.90
2019-03-11T20:14:41.012Z,6.10
2019-03-11T20:17:08.623Z,6.00
2019-03-11T20:19:36.732Z,6.10
2019-03-11T20:22:05.189Z,6.00
2019-03-11T20:24:32.727Z,6.10
2019-03-11T20:27:00.931Z,6.10
2019-03-11T20:29:28.415Z,6.00
2019-03-11T20:31:56.609Z,6.10
2019-03-11T20:34:24.669Z,6.00
2019-03-11T20:36:52.392Z,6.10
2019-03-11T20:39:20.785Z,6.10
2019-03-11T20:41:48.357Z,6.00
2019-03-11T20:44:16.346Z,6.00
2019-03-11T20:46:44.444Z,6.10
2019-03-11T20:49:12.655Z,6.10
2019-03-11T20:51:40.674Z,6.00
2019-03-11T20:54:08.512Z,6.00
2019-03-11T20:56:36.392Z,5.90
2019-03-11T20:59:03.817Z,6.10
2019-03-11T21:01:32.351Z,6.10
2019-03-11T21:03:59.758Z,6.00
2019-03-11T21:06:27.431Z,6.00
2019-03-11T21:08:55.533Z,6.10
2019-03-11T21:11:22.995Z,6.00
2019-03-11T21:13:51.030Z,6.20
2019-03-11T21:16:18.930Z,6.00
2019-03-11T21:18:46.209Z,6.10
2019-03-11T21:21:14.351Z,6.10
2019-03-11T21:23:41.892Z,6.10
2019-03-11T21:26:10.074Z,6.10
2019-03-11T21:28:37.835Z,5.90
2019-03-11T21:31:05.503Z,6.00
2019-03-11T21:33:33.214Z,5.90
2019-03-11T21:36:01.280Z,5.90
2019-03-11T21:38:28.819Z,5.80
2019-03-11T21:40:57.147Z,5.80
2019-03-11T21:43:24.587Z,5.90
2019-03-11T21:45:52.682Z,5.90
2019-03-11T21:48:20.298Z,6.00
2019-03-11T21:50:48.550Z,5.80
2019-03-11T21:53:16.464Z,5.80
2019-03-11T21:55:43.984Z,5.80
2019-03-11T21:58:13.415Z,5.80
2019-03-11T22:00:41.309Z,5.90
2019-03-11T22:03:09.104Z,5.80
2019-03-11T22:05:36.701Z,5.80
2019-03-11T22:08:04.104Z,5.60
2019-03-11T22:10:31.767Z,5.60
2019-03-11T22:12:59.540Z,5.60
2019-03-11T22:15:27.234Z,5.70
2019-03-11T22:17:54.942Z,5.60
2019-03-11T22:20:23.059Z,5.50
2019-03-11T22:22:50.363Z,5.50
2019-03-11T22:25:17.943Z,5.30
2019-03-11T22:27:46.042Z,5.30
2019-03-11T22:30:15.944Z,5.10
2019-03-11T22:32:44.090Z,5.10
2019-03-11T22:35:13.013Z,5.00
2019-03-11T22:37:41.116Z,4.90
2019-03-11T22:40:09.321Z,4.90
2019-03-11T22:42:37.100Z,4.80
2019-03-11T22:45:07.096Z,4.80
2019-03-11T22:47:35.170Z,4.80
2019-03-11T22:50:03.532Z,4.80
2019-03-11T22:52:32.122Z,4.80
2019-03-11T22:54:59.392Z,4.70
2019-03-11T22:57:29.800Z,4.70
2019-03-11T22:59:57.348Z,4.60
2019-03-11T23:02:25.162Z,4.60
2019-03-11T23:04:52.837Z,4.50
2019-03-11T23:07:20.210Z,4.60
2019-03-11T23:09:47.859Z,4.60
2019-03-11T23:12:15.334Z,4.60
2019-03-11T23:14:43.186Z,4.60
2019-03-11T23:17:10.713Z,4.50
2019-03-11T23:19:38.559Z,4.60
2019-03-11T23:22:06.913Z,4.50
2019-03-11T23:24:34.832Z,4.50
2019-03-11T23:27:02.398Z,4.30
2019-03-11T23:29:30.409Z,4.40
2019-03-11T23:31:58.110Z,4.50
2019-03-11T23:34:25.636Z,4.50
2019-03-11T23:36:53.157Z,4.40
2019-03-11T23:39:21.052Z,4.40
2019-03-11T23:41:48.468Z,4.30
2019-03-11T23:44:15.605Z,4.20
2019-03-11T23:46:43.190Z,4.30
2019-03-11T23:49:10.372Z,4.20
2019-03-11T23:51:37.998Z,4.10
2019-03-11T23:54:05.790Z,4.10
2019-03-11T23:56:33.245Z,4.20
2019-03-11T23:59:00.512Z,4.20
